sensor_id;sensor_type;location;lat;lon;timestamp;P1;durP1;ratioP1;P2;durP2;ratioP2
26080;SDS011;13991;51.174;4.438;2023-02-12T00:00:05;43.87;;;20.83;;
26080;SDS011;13991;51.174;4.438;2023-02-12T00:02:32;47.03;;;20.20;;
26080;SDS011;13991;51.174;4.438;2023-02-12T00:04:58;43.67;;;19.60;;
26080;SDS011;13991;51.174;4.438;2023-02-12T00:07:24;47.43;;;20.00;;
26080;SDS011;13991;51.174;4.438;2023-02-12T00:09:49;47.23;;;18.83;;
26080;SDS011;13991;51.174;4.438;2023-02-12T00:12:15;47.63;;;19.90;;
26080;SDS011;13991;51.174;4.438;2023-02-12T00:14:41;37.97;;;18.43;;
26080;SDS011;13991;51.174;4.438;2023-02-12T00:17:06;38.37;;;18.87;;
26080;SDS011;13991;51.174;4.438;2023-02-12T00:19:32;42.17;;;18.63;;
26080;SDS011;13991;51.174;4.438;2023-02-12T00:21:58;41.13;;;19.30;;
26080;SDS011;13991;51.174;4.438;2023-02-12T00:24:23;44.30;;;19.87;;
26080;SDS011;13991;51.174;4.438;2023-02-12T00:26:51;37.67;;;18.70;;
26080;SDS011;13991;51.174;4.438;2023-02-12T00:29:16;40.17;;;19.83;;
26080;SDS011;13991;51.174;4.438;2023-02-12T00:31:42;42.93;;;19.83;;
26080;SDS011;13991;51.174;4.438;2023-02-12T00:34:08;43.27;;;19.23;;
26080;SDS011;13991;51.174;4.438;2023-02-12T00:36:35;42.13;;;17.77;;
26080;SDS011;13991;51.174;4.438;2023-02-12T00:39:00;41.20;;;18.93;;
26080;SDS011;13991;51.174;4.438;2023-02-12T00:41:26;46.30;;;20.33;;
26080;SDS011;13991;51.174;4.438;2023-02-12T00:43:52;45.73;;;20.07;;
26080;SDS011;13991;51.174;4.438;2023-02-12T00:46:18;35.40;;;17.87;;
26080;SDS011;13991;51.174;4.438;2023-02-12T00:48:44;38.80;;;19.67;;
26080;SDS011;13991;51.174;4.438;2023-02-12T00:51:10;43.40;;;19.03;;
26080;SDS011;13991;51.174;4.438;2023-02-12T00:53:36;40.47;;;19.60;;
26080;SDS011;13991;51.174;4.438;2023-02-12T00:56:02;37.90;;;19.03;;
26080;SDS011;13991;51.174;4.438;2023-02-12T00:58:28;43.20;;;19.30;;
26080;SDS011;13991;51.174;4.438;2023-02-12T01:00:54;41.40;;;19.33;;
26080;SDS011;13991;51.174;4.438;2023-02-12T01:03:20;47.90;;;19.37;;
26080;SDS011;13991;51.174;4.438;2023-02-12T01:05:45;34.53;;;17.20;;
26080;SDS011;13991;51.174;4.438;2023-02-12T01:08:12;38.73;;;17.87;;
26080;SDS011;13991;51.174;4.438;2023-02-12T01:10:39;46.30;;;19.33;;
26080;SDS011;13991;51.174;4.438;2023-02-12T01:13:05;38.73;;;18.47;;
26080;SDS011;13991;51.174;4.438;2023-02-12T01:15:31;38.10;;;18.90;;
26080;SDS011;13991;51.174;4.438;2023-02-12T01:17:57;46.17;;;19.80;;
26080;SDS011;13991;51.174;4.438;2023-02-12T01:20:23;38.63;;;18.40;;
26080;SDS011;13991;51.174;4.438;2023-02-12T01:22:49;38.27;;;19.07;;
26080;SDS011;13991;51.174;4.438;2023-02-12T01:25:15;47.03;;;19.60;;
26080;SDS011;13991;51.174;4.438;2023-02-12T01:27:41;44.13;;;18.70;;
26080;SDS011;13991;51.174;4.438;2023-02-12T01:30:09;42.63;;;18.07;;
26080;SDS011;13991;51.174;4.438;2023-02-12T01:32:37;38.90;;;18.00;;
26080;SDS011;13991;51.174;4.438;2023-02-12T01:35:03;34.93;;;16.93;;
26080;SDS011;13991;51.174;4.438;2023-02-12T01:37:29;37.37;;;17.17;;
26080;SDS011;13991;51.174;4.438;2023-02-12T01:39:55;34.37;;;16.40;;
26080;SDS011;13991;51.174;4.438;2023-02-12T01:42:21;37.50;;;16.47;;
26080;SDS011;13991;51.174;4.438;2023-02-12T01:47:38;32.97;;;15.20;;
26080;SDS011;13991;51.174;4.438;2023-02-12T01:50:08;34.17;;;16.33;;
26080;SDS011;13991;51.174;4.438;2023-02-12T01:52:37;35.00;;;17.23;;
26080;SDS011;13991;51.174;4.438;2023-02-12T01:55:06;32.50;;;15.67;;
26080;SDS011;13991;51.174;4.438;2023-02-12T01:57:34;28.50;;;14.77;;
26080;SDS011;13991;51.174;4.438;2023-02-12T02:00:04;32.33;;;14.53;;
26080;SDS011;13991;51.174;4.438;2023-02-12T02:02:33;30.70;;;15.77;;
26080;SDS011;13991;51.174;4.438;2023-02-12T02:05:01;32.60;;;15.03;;
26080;SDS011;13991;51.174;4.438;2023-02-12T02:07:28;30.70;;;14.80;;
26080;SDS011;13991;51.174;4.438;2023-02-12T02:09:54;27.73;;;14.33;;
26080;SDS011;13991;51.174;4.438;2023-02-12T02:12:21;26.57;;;14.70;;
26080;SDS011;13991;51.174;4.438;2023-02-12T02:15:06;29.13;;;14.27;;
26080;SDS011;13991;51.174;4.438;2023-02-12T02:17:40;28.70;;;14.20;;
26080;SDS011;13991;51.174;4.438;2023-02-12T02:20:17;32.63;;;15.40;;
26080;SDS011;13991;51.174;4.438;2023-02-12T02:41:05;28.40;;;9.67;;
26080;SDS011;13991;51.174;4.438;2023-02-12T02:43:45;14.17;;;7.40;;
26080;SDS011;13991;51.174;4.438;2023-02-12T02:46:23;16.17;;;7.07;;
26080;SDS011;13991;51.174;4.438;2023-02-12T02:48:52;17.60;;;9.93;;
26080;SDS011;13991;51.174;4.438;2023-02-12T02:51:29;22.57;;;10.53;;
26080;SDS011;13991;51.174;4.438;2023-02-12T02:56:40;21.50;;;11.83;;
26080;SDS011;13991;51.174;4.438;2023-02-12T02:59:13;27.10;;;12.10;;
26080;SDS011;13991;51.174;4.438;2023-02-12T03:01:58;24.20;;;10.70;;
26080;SDS011;13991;51.174;4.438;2023-02-12T03:04:32;24.67;;;10.77;;
26080;SDS011;13991;51.174;4.438;2023-02-12T03:07:16;20.40;;;11.00;;
26080;SDS011;13991;51.174;4.438;2023-02-12T03:09:57;26.03;;;11.43;;
26080;SDS011;13991;51.174;4.438;2023-02-12T03:12:33;21.57;;;10.93;;
26080;SDS011;13991;51.174;4.438;2023-02-12T03:15:14;21.13;;;11.30;;
26080;SDS011;13991;51.174;4.438;2023-02-12T03:17:54;22.10;;;11.57;;
26080;SDS011;13991;51.174;4.438;2023-02-12T03:20:28;23.83;;;12.30;;
26080;SDS011;13991;51.174;4.438;2023-02-12T03:23:05;24.57;;;12.20;;
26080;SDS011;13991;51.174;4.438;2023-02-12T03:25:55;19.63;;;12.07;;
26080;SDS011;13991;51.174;4.438;2023-02-12T03:28:29;27.37;;;12.07;;
26080;SDS011;13991;51.174;4.438;2023-02-12T03:31:09;30.00;;;11.87;;
26080;SDS011;13991;51.174;4.438;2023-02-12T03:38:58;19.53;;;11.77;;
26080;SDS011;13991;51.174;4.438;2023-02-12T03:41:44;25.70;;;12.27;;
26080;SDS011;13991;51.174;4.438;2023-02-12T03:44:34;21.30;;;12.03;;
26080;SDS011;13991;51.174;4.438;2023-02-12T03:52:34;20.23;;;11.27;;
26080;SDS011;13991;51.174;4.438;2023-02-12T03:55:00;25.80;;;11.10;;
26080;SDS011;13991;51.174;4.438;2023-02-12T03:57:28;24.90;;;10.93;;
26080;SDS011;13991;51.174;4.438;2023-02-12T03:59:58;23.40;;;10.47;;
26080;SDS011;13991;51.174;4.438;2023-02-12T04:02:28;22.80;;;11.43;;
26080;SDS011;13991;51.174;4.438;2023-02-12T04:04:54;24.73;;;12.13;;
26080;SDS011;13991;51.174;4.438;2023-02-12T04:07:20;20.43;;;11.27;;
26080;SDS011;13991;51.174;4.438;2023-02-12T04:09:46;25.60;;;12.30;;
26080;SDS011;13991;51.174;4.438;2023-02-12T04:20:20;18.83;;;10.37;;
26080;SDS011;13991;51.174;4.438;2023-02-12T04:23:15;22.37;;;11.47;;
26080;SDS011;13991;51.174;4.438;2023-02-12T04:34:09;22.30;;;11.40;;
26080;SDS011;13991;51.174;4.438;2023-02-12T04:37:02;23.53;;;13.03;;
26080;SDS011;13991;51.174;4.438;2023-02-12T04:39:48;24.70;;;12.17;;
26080;SDS011;13991;51.174;4.438;2023-02-12T04:42:15;27.67;;;13.53;;
26080;SDS011;13991;51.174;4.438;2023-02-12T04:44:41;26.63;;;13.73;;
26080;SDS011;13991;51.174;4.438;2023-02-12T04:47:11;29.87;;;14.20;;
26080;SDS011;13991;51.174;4.438;2023-02-12T04:49:38;26.27;;;13.43;;
26080;SDS011;13991;51.174;4.438;2023-02-12T04:52:04;25.00;;;13.43;;
26080;SDS011;13991;51.174;4.438;2023-02-12T04:54:30;29.03;;;14.00;;
26080;SDS011;13991;51.174;4.438;2023-02-12T04:56:56;25.37;;;14.47;;
26080;SDS011;13991;51.174;4.438;2023-02-12T04:59:21;24.97;;;14.20;;
26080;SDS011;13991;51.174;4.438;2023-02-12T05:01:47;30.07;;;13.80;;
26080;SDS011;13991;51.174;4.438;2023-02-12T05:04:13;21.33;;;13.00;;
26080;SDS011;13991;51.174;4.438;2023-02-12T05:06:40;28.10;;;14.63;;
26080;SDS011;13991;51.174;4.438;2023-02-12T05:09:07;20.07;;;13.00;;
26080;SDS011;13991;51.174;4.438;2023-02-12T05:11:34;27.40;;;14.20;;
26080;SDS011;13991;51.174;4.438;2023-02-12T05:13:59;30.83;;;14.60;;
26080;SDS011;13991;51.174;4.438;2023-02-12T05:16:25;27.30;;;13.80;;
26080;SDS011;13991;51.174;4.438;2023-02-12T05:18:51;21.10;;;12.47;;
26080;SDS011;13991;51.174;4.438;2023-02-12T05:21:17;25.83;;;13.83;;
26080;SDS011;13991;51.174;4.438;2023-02-12T05:23:43;28.93;;;13.63;;
26080;SDS011;13991;51.174;4.438;2023-02-12T05:26:16;36.77;;;14.83;;
26080;SDS011;13991;51.174;4.438;2023-02-12T05:28:43;26.60;;;13.80;;
26080;SDS011;13991;51.174;4.438;2023-02-12T05:31:10;27.47;;;13.97;;
26080;SDS011;13991;51.174;4.438;2023-02-12T05:33:43;22.23;;;13.43;;
26080;SDS011;13991;51.174;4.438;2023-02-12T05:36:11;22.83;;;12.97;;
26080;SDS011;13991;51.174;4.438;2023-02-12T05:38:41;26.50;;;12.77;;
26080;SDS011;13991;51.174;4.438;2023-02-12T05:41:09;29.97;;;13.30;;
26080;SDS011;13991;51.174;4.438;2023-02-12T05:43:36;26.60;;;14.50;;
26080;SDS011;13991;51.174;4.438;2023-02-12T05:46:03;30.63;;;14.53;;
26080;SDS011;13991;51.174;4.438;2023-02-12T05:48:30;29.53;;;14.17;;
26080;SDS011;13991;51.174;4.438;2023-02-12T05:53:33;27.63;;;15.10;;
26080;SDS011;13991;51.174;4.438;2023-02-12T05:56:33;22.10;;;14.00;;
26080;SDS011;13991;51.174;4.438;2023-02-12T05:58:56;24.93;;;14.97;;
26080;SDS011;13991;51.174;4.438;2023-02-12T06:01:27;25.37;;;13.83;;
26080;SDS011;13991;51.174;4.438;2023-02-12T06:03:55;26.73;;;14.80;;
26080;SDS011;13991;51.174;4.438;2023-02-12T06:06:23;24.40;;;14.17;;
26080;SDS011;13991;51.174;4.438;2023-02-12T06:08:50;23.67;;;14.53;;
26080;SDS011;13991;51.174;4.438;2023-02-12T06:11:16;26.27;;;14.57;;
26080;SDS011;13991;51.174;4.438;2023-02-12T06:13:42;25.27;;;14.10;;
26080;SDS011;13991;51.174;4.438;2023-02-12T06:16:18;29.67;;;14.70;;
26080;SDS011;13991;51.174;4.438;2023-02-12T06:18:46;28.87;;;14.17;;
26080;SDS011;13991;51.174;4.438;2023-02-12T06:21:13;29.47;;;14.03;;
26080;SDS011;13991;51.174;4.438;2023-02-12T06:23:39;23.83;;;14.27;;
26080;SDS011;13991;51.174;4.438;2023-02-12T06:26:05;29.90;;;14.73;;
26080;SDS011;13991;51.174;4.438;2023-02-12T06:28:30;23.60;;;14.03;;
26080;SDS011;13991;51.174;4.438;2023-02-12T06:30:56;25.87;;;15.13;;
26080;SDS011;13991;51.174;4.438;2023-02-12T06:33:21;29.57;;;15.07;;
26080;SDS011;13991;51.174;4.438;2023-02-12T06:35:47;28.63;;;15.10;;
26080;SDS011;13991;51.174;4.438;2023-02-12T06:38:13;29.57;;;14.47;;
26080;SDS011;13991;51.174;4.438;2023-02-12T06:40:39;25.70;;;14.73;;
26080;SDS011;13991;51.174;4.438;2023-02-12T06:43:05;23.20;;;14.17;;
26080;SDS011;13991;51.174;4.438;2023-02-12T06:45:31;24.13;;;15.37;;
26080;SDS011;13991;51.174;4.438;2023-02-12T06:47:57;26.37;;;15.40;;
26080;SDS011;13991;51.174;4.438;2023-02-12T06:50:23;27.97;;;14.57;;
26080;SDS011;13991;51.174;4.438;2023-02-12T06:52:49;29.13;;;15.27;;
26080;SDS011;13991;51.174;4.438;2023-02-12T06:55:15;25.40;;;14.70;;
26080;SDS011;13991;51.174;4.438;2023-02-12T06:57:41;27.53;;;14.87;;
26080;SDS011;13991;51.174;4.438;2023-02-12T07:00:07;20.73;;;12.67;;
26080;SDS011;13991;51.174;4.438;2023-02-12T07:02:34;22.47;;;13.40;;
26080;SDS011;13991;51.174;4.438;2023-02-12T07:04:59;24.83;;;13.63;;
26080;SDS011;13991;51.174;4.438;2023-02-12T07:07:25;29.37;;;13.70;;
26080;SDS011;13991;51.174;4.438;2023-02-12T07:09:51;26.23;;;13.60;;
26080;SDS011;13991;51.174;4.438;2023-02-12T07:12:16;19.77;;;11.70;;
26080;SDS011;13991;51.174;4.438;2023-02-12T07:14:42;24.10;;;12.60;;
26080;SDS011;13991;51.174;4.438;2023-02-12T07:17:08;22.73;;;11.00;;
26080;SDS011;13991;51.174;4.438;2023-02-12T07:19:34;18.07;;;10.63;;
26080;SDS011;13991;51.174;4.438;2023-02-12T07:22:00;22.77;;;10.73;;
26080;SDS011;13991;51.174;4.438;2023-02-12T07:24:26;23.67;;;11.40;;
26080;SDS011;13991;51.174;4.438;2023-02-12T07:26:52;24.37;;;10.87;;
26080;SDS011;13991;51.174;4.438;2023-02-12T07:29:18;23.90;;;11.33;;
26080;SDS011;13991;51.174;4.438;2023-02-12T07:31:43;21.30;;;9.93;;
26080;SDS011;13991;51.174;4.438;2023-02-12T07:34:09;19.43;;;10.07;;
26080;SDS011;13991;51.174;4.438;2023-02-12T07:36:35;23.57;;;11.23;;
26080;SDS011;13991;51.174;4.438;2023-02-12T07:39:02;21.30;;;9.97;;
26080;SDS011;13991;51.174;4.438;2023-02-12T07:41:29;29.67;;;11.03;;
26080;SDS011;13991;51.174;4.438;2023-02-12T07:44:00;21.23;;;10.90;;
26080;SDS011;13991;51.174;4.438;2023-02-12T07:46:31;18.60;;;10.17;;
26080;SDS011;13991;51.174;4.438;2023-02-12T07:49:00;20.30;;;10.93;;
26080;SDS011;13991;51.174;4.438;2023-02-12T07:51:28;21.83;;;10.20;;
26080;SDS011;13991;51.174;4.438;2023-02-12T07:53:56;16.77;;;9.83;;
26080;SDS011;13991;51.174;4.438;2023-02-12T07:56:23;27.10;;;9.87;;
26080;SDS011;13991;51.174;4.438;2023-02-12T07:58:54;20.60;;;9.80;;
26080;SDS011;13991;51.174;4.438;2023-02-12T08:01:22;18.87;;;9.30;;
26080;SDS011;13991;51.174;4.438;2023-02-12T08:03:51;16.37;;;9.67;;
26080;SDS011;13991;51.174;4.438;2023-02-12T08:06:18;20.43;;;8.90;;
26080;SDS011;13991;51.174;4.438;2023-02-12T08:08:49;16.63;;;9.20;;
26080;SDS011;13991;51.174;4.438;2023-02-12T08:11:20;22.73;;;8.67;;
26080;SDS011;13991;51.174;4.438;2023-02-12T08:13:47;29.43;;;10.43;;
26080;SDS011;13991;51.174;4.438;2023-02-12T08:16:20;21.87;;;10.60;;
26080;SDS011;13991;51.174;4.438;2023-02-12T08:18:48;19.40;;;8.90;;
26080;SDS011;13991;51.174;4.438;2023-02-12T08:21:15;18.43;;;9.23;;
26080;SDS011;13991;51.174;4.438;2023-02-12T08:23:42;19.30;;;9.27;;
26080;SDS011;13991;51.174;4.438;2023-02-12T08:26:13;24.73;;;10.17;;
26080;SDS011;13991;51.174;4.438;2023-02-12T08:28:41;56.17;;;21.33;;
26080;SDS011;13991;51.174;4.438;2023-02-12T08:31:10;21.37;;;12.13;;
26080;SDS011;13991;51.174;4.438;2023-02-12T08:33:47;26.33;;;11.03;;
26080;SDS011;13991;51.174;4.438;2023-02-12T08:36:14;19.80;;;9.93;;
26080;SDS011;13991;51.174;4.438;2023-02-12T08:38:42;15.07;;;8.97;;
26080;SDS011;13991;51.174;4.438;2023-02-12T08:41:10;20.77;;;8.47;;
26080;SDS011;13991;51.174;4.438;2023-02-12T08:43:40;20.80;;;10.00;;
26080;SDS011;13991;51.174;4.438;2023-02-12T08:46:07;21.77;;;9.50;;
26080;SDS011;13991;51.174;4.438;2023-02-12T08:48:35;13.47;;;7.77;;
26080;SDS011;13991;51.174;4.438;2023-02-12T08:51:12;13.27;;;7.93;;
26080;SDS011;13991;51.174;4.438;2023-02-12T08:53:39;26.80;;;9.97;;
26080;SDS011;13991;51.174;4.438;2023-02-12T08:56:05;23.23;;;9.90;;
26080;SDS011;13991;51.174;4.438;2023-02-12T08:58:32;16.57;;;9.07;;
26080;SDS011;13991;51.174;4.438;2023-02-12T09:00:59;26.47;;;10.40;;
26080;SDS011;13991;51.174;4.438;2023-02-12T09:03:25;20.80;;;9.17;;
26080;SDS011;13991;51.174;4.438;2023-02-12T09:05:51;17.60;;;9.37;;
26080;SDS011;13991;51.174;4.438;2023-02-12T09:08:17;20.50;;;8.53;;
26080;SDS011;13991;51.174;4.438;2023-02-12T09:10:43;23.30;;;9.57;;
26080;SDS011;13991;51.174;4.438;2023-02-12T09:13:09;23.27;;;9.83;;
26080;SDS011;13991;51.174;4.438;2023-02-12T09:15:37;21.37;;;9.57;;
26080;SDS011;13991;51.174;4.438;2023-02-12T09:18:04;20.63;;;10.23;;
26080;SDS011;13991;51.174;4.438;2023-02-12T09:20:30;19.57;;;10.90;;
26080;SDS011;13991;51.174;4.438;2023-02-12T09:22:59;23.90;;;10.93;;
26080;SDS011;13991;51.174;4.438;2023-02-12T09:25:25;31.67;;;10.83;;
26080;SDS011;13991;51.174;4.438;2023-02-12T09:27:51;24.97;;;11.53;;
26080;SDS011;13991;51.174;4.438;2023-02-12T09:30:17;28.60;;;11.83;;
26080;SDS011;13991;51.174;4.438;2023-02-12T09:32:43;27.90;;;12.93;;
26080;SDS011;13991;51.174;4.438;2023-02-12T09:35:09;22.70;;;12.23;;
26080;SDS011;13991;51.174;4.438;2023-02-12T09:37:38;26.17;;;12.00;;
26080;SDS011;13991;51.174;4.438;2023-02-12T09:40:04;21.43;;;11.50;;
26080;SDS011;13991;51.174;4.438;2023-02-12T09:45:26;24.10;;;12.00;;
26080;SDS011;13991;51.174;4.438;2023-02-12T09:48:10;29.50;;;12.63;;
26080;SDS011;13991;51.174;4.438;2023-02-12T09:53:30;22.30;;;12.10;;
26080;SDS011;13991;51.174;4.438;2023-02-12T10:04:43;21.90;;;11.97;;
26080;SDS011;13991;51.174;4.438;2023-02-12T12:02:22;31.13;;;16.67;;
26080;SDS011;13991;51.174;4.438;2023-02-12T12:05:17;35.70;;;17.67;;
26080;SDS011;13991;51.174;4.438;2023-02-12T12:08:26;37.97;;;19.43;;
26080;SDS011;13991;51.174;4.438;2023-02-12T12:16:35;36.27;;;17.93;;
26080;SDS011;13991;51.174;4.438;2023-02-12T12:19:34;35.73;;;17.43;;
26080;SDS011;13991;51.174;4.438;2023-02-12T12:43:37;38.83;;;18.93;;
26080;SDS011;13991;51.174;4.438;2023-02-12T12:51:34;44.00;;;18.33;;
26080;SDS011;13991;51.174;4.438;2023-02-12T13:10:48;36.33;;;17.67;;
26080;SDS011;13991;51.174;4.438;2023-02-12T13:13:24;33.73;;;17.27;;
26080;SDS011;13991;51.174;4.438;2023-02-12T13:23:58;40.20;;;20.33;;
26080;SDS011;13991;51.174;4.438;2023-02-12T13:29:24;48.80;;;20.80;;
26080;SDS011;13991;51.174;4.438;2023-02-12T13:32:40;45.70;;;21.10;;
26080;SDS011;13991;51.174;4.438;2023-02-12T13:34:49;40.97;;;20.07;;
26080;SDS011;13991;51.174;4.438;2023-02-12T13:37:18;38.40;;;19.90;;
26080;SDS011;13991;51.174;4.438;2023-02-12T13:39:54;42.17;;;19.93;;
26080;SDS011;13991;51.174;4.438;2023-02-12T13:42:42;54.00;;;20.77;;
26080;SDS011;13991;51.174;4.438;2023-02-12T13:45:27;40.53;;;18.67;;
26080;SDS011;13991;51.174;4.438;2023-02-12T13:50:40;46.37;;;19.93;;
26080;SDS011;13991;51.174;4.438;2023-02-12T13:56:03;37.77;;;19.03;;
26080;SDS011;13991;51.174;4.438;2023-02-12T14:01:02;46.33;;;22.00;;
26080;SDS011;13991;51.174;4.438;2023-02-12T14:03:34;47.67;;;21.63;;
26080;SDS011;13991;51.174;4.438;2023-02-12T14:06:15;42.60;;;20.47;;
26080;SDS011;13991;51.174;4.438;2023-02-12T14:08:46;41.37;;;20.17;;
26080;SDS011;13991;51.174;4.438;2023-02-12T14:11:15;41.87;;;19.47;;
26080;SDS011;13991;51.174;4.438;2023-02-12T14:13:49;47.93;;;20.53;;
26080;SDS011;13991;51.174;4.438;2023-02-12T14:19:35;46.87;;;22.03;;
26080;SDS011;13991;51.174;4.438;2023-02-12T14:22:01;48.63;;;21.27;;
26080;SDS011;13991;51.174;4.438;2023-02-12T14:27:04;52.13;;;21.90;;
26080;SDS011;13991;51.174;4.438;2023-02-12T14:30:01;43.83;;;20.67;;
26080;SDS011;13991;51.174;4.438;2023-02-12T14:51:18;35.07;;;17.93;;
26080;SDS011;13991;51.174;4.438;2023-02-12T14:53:57;35.13;;;18.03;;
26080;SDS011;13991;51.174;4.438;2023-02-12T14:56:24;45.63;;;19.17;;
26080;SDS011;13991;51.174;4.438;2023-02-12T14:58:50;42.20;;;20.23;;
26080;SDS011;13991;51.174;4.438;2023-02-12T15:01:24;41.07;;;20.40;;
26080;SDS011;13991;51.174;4.438;2023-02-12T15:03:57;46.23;;;19.93;;
26080;SDS011;13991;51.174;4.438;2023-02-12T15:06:36;42.50;;;19.60;;
26080;SDS011;13991;51.174;4.438;2023-02-12T15:09:12;42.37;;;20.13;;
26080;SDS011;13991;51.174;4.438;2023-02-12T15:11:47;42.50;;;19.20;;
26080;SDS011;13991;51.174;4.438;2023-02-12T15:14:39;42.70;;;20.23;;
26080;SDS011;13991;51.174;4.438;2023-02-12T15:17:07;43.72;;;18.45;;
26080;SDS011;13991;51.174;4.438;2023-02-12T15:19:47;47.85;;;24.27;;
26080;SDS011;13991;51.174;4.438;2023-02-12T15:22:29;42.37;;;20.37;;
26080;SDS011;13991;51.174;4.438;2023-02-12T15:27:46;51.60;;;23.42;;
26080;SDS011;13991;51.174;4.438;2023-02-12T15:30:14;45.57;;;24.43;;
26080;SDS011;13991;51.174;4.438;2023-02-12T15:32:41;47.95;;;22.60;;
26080;SDS011;13991;51.174;4.438;2023-02-12T15:35:44;38.83;;;18.00;;
26080;SDS011;13991;51.174;4.438;2023-02-12T15:38:07;44.13;;;19.50;;
26080;SDS011;13991;51.174;4.438;2023-02-12T15:40:58;40.10;;;19.57;;
26080;SDS011;13991;51.174;4.438;2023-02-12T15:43:26;41.50;;;20.25;;
26080;SDS011;13991;51.174;4.438;2023-02-12T15:45:55;40.73;;;19.23;;
26080;SDS011;13991;51.174;4.438;2023-02-12T15:48:23;40.73;;;19.80;;
26080;SDS011;13991;51.174;4.438;2023-02-12T15:53:35;46.97;;;21.23;;
26080;SDS011;13991;51.174;4.438;2023-02-12T15:56:03;45.17;;;24.35;;
26080;SDS011;13991;51.174;4.438;2023-02-12T15:58:34;41.93;;;21.27;;
26080;SDS011;13991;51.174;4.438;2023-02-12T16:01:06;46.20;;;20.60;;
26080;SDS011;13991;51.174;4.438;2023-02-12T16:03:35;42.40;;;21.67;;
26080;SDS011;13991;51.174;4.438;2023-02-12T16:06:12;44.67;;;19.83;;
26080;SDS011;13991;51.174;4.438;2023-02-12T16:08:41;45.63;;;21.50;;
26080;SDS011;13991;51.174;4.438;2023-02-12T16:11:12;45.37;;;20.77;;
26080;SDS011;13991;51.174;4.438;2023-02-12T16:14:03;41.60;;;20.87;;
26080;SDS011;13991;51.174;4.438;2023-02-12T16:16:42;49.60;;;21.13;;
26080;SDS011;13991;51.174;4.438;2023-02-12T16:21:54;39.97;;;20.87;;
26080;SDS011;13991;51.174;4.438;2023-02-12T16:24:58;46.77;;;21.10;;
26080;SDS011;13991;51.174;4.438;2023-02-12T16:27:26;49.20;;;23.13;;
26080;SDS011;13991;51.174;4.438;2023-02-12T16:29:58;42.97;;;21.33;;
26080;SDS011;13991;51.174;4.438;2023-02-12T16:32:34;51.67;;;22.80;;
26080;SDS011;13991;51.174;4.438;2023-02-12T16:42:37;48.93;;;24.23;;
26080;SDS011;13991;51.174;4.438;2023-02-12T16:47:52;53.43;;;24.00;;
26080;SDS011;13991;51.174;4.438;2023-02-12T16:50:19;55.00;;;24.00;;
26080;SDS011;13991;51.174;4.438;2023-02-12T16:52:48;49.00;;;23.20;;
26080;SDS011;13991;51.174;4.438;2023-02-12T16:55:22;50.33;;;23.13;;
26080;SDS011;13991;51.174;4.438;2023-02-12T16:57:48;58.23;;;29.50;;
26080;SDS011;13991;51.174;4.438;2023-02-12T17:00:14;56.87;;;28.30;;
26080;SDS011;13991;51.174;4.438;2023-02-12T17:02:41;52.43;;;26.07;;
26080;SDS011;13991;51.174;4.438;2023-02-12T17:05:07;55.17;;;25.13;;
26080;SDS011;13991;51.174;4.438;2023-02-12T17:07:34;54.53;;;25.77;;
26080;SDS011;13991;51.174;4.438;2023-02-12T17:10:00;55.90;;;25.70;;
26080;SDS011;13991;51.174;4.438;2023-02-12T17:12:27;69.27;;;26.23;;
26080;SDS011;13991;51.174;4.438;2023-02-12T17:14:53;50.03;;;24.00;;
26080;SDS011;13991;51.174;4.438;2023-02-12T17:17:19;52.83;;;25.03;;
26080;SDS011;13991;51.174;4.438;2023-02-12T17:19:45;53.00;;;24.90;;
26080;SDS011;13991;51.174;4.438;2023-02-12T17:22:21;55.87;;;24.97;;
26080;SDS011;13991;51.174;4.438;2023-02-12T17:24:49;56.70;;;26.37;;
26080;SDS011;13991;51.174;4.438;2023-02-12T17:27:17;55.90;;;25.70;;
26080;SDS011;13991;51.174;4.438;2023-02-12T17:29:43;56.43;;;26.53;;
26080;SDS011;13991;51.174;4.438;2023-02-12T17:32:09;52.73;;;25.93;;
26080;SDS011;13991;51.174;4.438;2023-02-12T17:34:35;49.80;;;24.90;;
26080;SDS011;13991;51.174;4.438;2023-02-12T17:37:02;51.40;;;25.43;;
26080;SDS011;13991;51.174;4.438;2023-02-12T17:39:29;64.30;;;25.97;;
26080;SDS011;13991;51.174;4.438;2023-02-12T17:41:54;57.33;;;27.70;;
26080;SDS011;13991;51.174;4.438;2023-02-12T17:44:23;58.57;;;27.50;;
26080;SDS011;13991;51.174;4.438;2023-02-12T17:46:49;64.07;;;27.10;;
26080;SDS011;13991;51.174;4.438;2023-02-12T17:49:15;70.20;;;27.27;;
26080;SDS011;13991;51.174;4.438;2023-02-12T17:51:41;71.33;;;30.33;;
26080;SDS011;13991;51.174;4.438;2023-02-12T17:54:07;62.37;;;27.37;;
26080;SDS011;13991;51.174;4.438;2023-02-12T17:56:33;68.80;;;29.00;;
26080;SDS011;13991;51.174;4.438;2023-02-12T17:58:59;61.53;;;28.57;;
26080;SDS011;13991;51.174;4.438;2023-02-12T18:01:25;64.77;;;28.70;;
26080;SDS011;13991;51.174;4.438;2023-02-12T18:03:51;60.23;;;28.10;;
26080;SDS011;13991;51.174;4.438;2023-02-12T18:06:26;65.03;;;30.30;;
26080;SDS011;13991;51.174;4.438;2023-02-12T18:08:54;73.73;;;30.60;;
26080;SDS011;13991;51.174;4.438;2023-02-12T18:11:21;68.53;;;30.97;;
26080;SDS011;13991;51.174;4.438;2023-02-12T18:13:47;66.20;;;30.17;;
26080;SDS011;13991;51.174;4.438;2023-02-12T18:16:17;69.03;;;31.67;;
26080;SDS011;13991;51.174;4.438;2023-02-12T18:18:43;72.33;;;32.03;;
26080;SDS011;13991;51.174;4.438;2023-02-12T18:21:09;67.63;;;32.30;;
26080;SDS011;13991;51.174;4.438;2023-02-12T18:23:37;73.50;;;32.10;;
26080;SDS011;13991;51.174;4.438;2023-02-12T18:26:04;78.77;;;32.40;;
26080;SDS011;13991;51.174;4.438;2023-02-12T18:28:34;66.03;;;31.53;;
26080;SDS011;13991;51.174;4.438;2023-02-12T18:31:00;61.93;;;30.70;;
26080;SDS011;13991;51.174;4.438;2023-02-12T18:33:26;70.20;;;31.27;;
26080;SDS011;13991;51.174;4.438;2023-02-12T18:35:56;71.73;;;32.70;;
26080;SDS011;13991;51.174;4.438;2023-02-12T18:38:22;69.03;;;31.10;;
26080;SDS011;13991;51.174;4.438;2023-02-12T18:40:48;74.93;;;31.90;;
26080;SDS011;13991;51.174;4.438;2023-02-12T18:43:14;75.20;;;32.00;;
26080;SDS011;13991;51.174;4.438;2023-02-12T18:45:40;66.53;;;31.77;;
26080;SDS011;13991;51.174;4.438;2023-02-12T18:48:05;71.97;;;31.87;;
26080;SDS011;13991;51.174;4.438;2023-02-12T18:50:33;70.53;;;31.57;;
26080;SDS011;13991;51.174;4.438;2023-02-12T18:52:59;74.07;;;34.07;;
26080;SDS011;13991;51.174;4.438;2023-02-12T18:55:25;73.87;;;32.67;;
26080;SDS011;13991;51.174;4.438;2023-02-12T18:57:51;74.90;;;32.67;;
26080;SDS011;13991;51.174;4.438;2023-02-12T19:00:17;80.10;;;35.17;;
26080;SDS011;13991;51.174;4.438;2023-02-12T19:02:43;74.30;;;32.73;;
26080;SDS011;13991;51.174;4.438;2023-02-12T19:05:09;69.63;;;31.27;;
26080;SDS011;13991;51.174;4.438;2023-02-12T19:07:35;77.97;;;33.00;;
26080;SDS011;13991;51.174;4.438;2023-02-12T19:10:00;77.37;;;33.03;;
26080;SDS011;13991;51.174;4.438;2023-02-12T19:12:26;74.03;;;33.33;;
26080;SDS011;13991;51.174;4.438;2023-02-12T19:14:52;75.23;;;33.63;;
26080;SDS011;13991;51.174;4.438;2023-02-12T19:17:18;77.53;;;35.80;;
26080;SDS011;13991;51.174;4.438;2023-02-12T19:19:43;78.53;;;35.00;;
26080;SDS011;13991;51.174;4.438;2023-02-12T19:22:09;68.60;;;33.33;;
26080;SDS011;13991;51.174;4.438;2023-02-12T19:24:35;79.67;;;35.83;;
26080;SDS011;13991;51.174;4.438;2023-02-12T19:27:00;72.53;;;33.63;;
26080;SDS011;13991;51.174;4.438;2023-02-12T19:29:26;72.33;;;33.77;;
26080;SDS011;13991;51.174;4.438;2023-02-12T19:31:52;70.77;;;34.00;;